createdAt,value
2018-10-05T00:00:04.428Z,6.50
2018-10-05T00:02:32.097Z,6.50
2018-10-05T00:04:59.758Z,6.50
2018-10-05T00:07:27.693Z,6.50
2018-10-05T00:09:55.387Z,6.50
2018-10-05T00:12:23.169Z,6.50
2018-10-05T00:14:50.833Z,6.40
2018-10-05T00:17:18.497Z,6.40
2018-10-05T00:19:46.267Z,6.40
2018-10-05T00:22:14.018Z,6.40
2018-10-05T00:24:41.726Z,6.40
2018-10-05T00:27:09.373Z,6.30
2018-10-05T00:29:37.046Z,6.40
2018-10-05T00:32:04.713Z,6.30
2018-10-05T00:34:32.384Z,6.20
2018-10-05T00:37:00.109Z,6.20
2018-10-05T00:39:27.761Z,6.20
2018-10-05T00:41:55.431Z,6.20
2018-10-05T00:44:23.094Z,6.10
2018-10-05T00:46:50.752Z,6.10
2018-10-05T00:49:18.413Z,6.10
2018-10-05T00:51:46.081Z,6.20
2018-10-05T00:54:13.766Z,6.10
2018-10-05T00:56:41.510Z,6.10
2018-10-05T00:59:09.162Z,6.20
2018-10-05T01:01:36.889Z,6.10
2018-10-05T01:04:04.593Z,6.10
2018-10-05T01:06:32.261Z,6.10
2018-10-05T01:08:59.933Z,6.10
2018-10-05T01:11:27.652Z,6.00
2018-10-05T01:13:55.278Z,6.00
2018-10-05T01:16:22.943Z,5.90
2018-10-05T01:18:50.615Z,5.90
2018-10-05T01:21:18.294Z,5.80
2018-10-05T01:23:45.956Z,5.90
2018-10-05T01:26:13.614Z,5.80
2018-10-05T01:28:41.356Z,5.80
2018-10-05T01:31:09.022Z,5.80
2018-10-05T01:33:36.696Z,5.70
2018-10-05T01:36:24.754Z,5.70
2018-10-05T01:38:52.488Z,5.60
2018-10-05T01:41:20.110Z,5.80
2018-10-05T01:43:47.800Z,5.70
2018-10-05T01:46:15.465Z,5.80
2018-10-05T01:48:43.245Z,5.70
2018-10-05T01:51:10.938Z,5.70
2018-10-05T01:53:38.613Z,5.60
2018-10-05T01:56:06.305Z,5.60
2018-10-05T01:58:35.269Z,5.50
2018-10-05T02:01:03.220Z,5.50
2018-10-05T02:03:30.867Z,5.50
2018-10-05T02:05:58.928Z,5.60
2018-10-05T02:08:26.583Z,5.70
2018-10-05T02:10:54.244Z,5.60
2018-10-05T02:13:21.911Z,5.60
2018-10-05T02:15:49.600Z,5.50
2018-10-05T02:18:17.298Z,5.50
2018-10-05T02:20:44.970Z,5.50
2018-10-05T02:23:12.668Z,5.50
2018-10-05T02:25:40.329Z,5.50
2018-10-05T02:28:07.994Z,5.40
2018-10-05T02:30:35.658Z,5.40
2018-10-05T02:33:03.388Z,5.40
2018-10-05T02:35:30.996Z,5.40
2018-10-05T02:37:58.673Z,5.30
2018-10-05T02:40:26.360Z,5.30
2018-10-05T02:42:54.053Z,5.20
2018-10-05T02:45:21.734Z,5.30
2018-10-05T02:47:49.425Z,5.30
2018-10-05T02:50:17.112Z,5.30
2018-10-05T02:52:44.781Z,5.30
2018-10-05T02:55:12.450Z,5.20
2018-10-05T02:57:40.134Z,5.20
2018-10-05T03:00:12.256Z,5.30
2018-10-05T03:02:39.939Z,5.20
2018-10-05T03:05:07.627Z,5.20
2018-10-05T03:07:35.302Z,5.30
2018-10-05T03:10:02.998Z,5.20
2018-10-05T03:12:30.697Z,5.20
2018-10-05T03:14:58.401Z,5.20
2018-10-05T03:17:26.074Z,5.20
2018-10-05T03:19:53.975Z,5.10
2018-10-05T03:22:21.523Z,5.10
2018-10-05T03:24:49.206Z,5.20
2018-10-05T03:27:16.918Z,5.20
2018-10-05T03:29:44.593Z,5.10
2018-10-05T03:32:12.255Z,5.10
2018-10-05T03:34:39.922Z,5.20
2018-10-05T03:37:07.606Z,5.10
2018-10-05T03:39:35.273Z,5.00
2018-10-05T03:42:02.946Z,4.90
2018-10-05T03:44:30.606Z,4.90
2018-10-05T03:46:58.298Z,5.00
2018-10-05T03:49:25.966Z,5.10
2018-10-05T03:51:53.671Z,5.00
2018-10-05T03:54:21.334Z,5.10
2018-10-05T03:56:49.070Z,5.00
2018-10-05T03:59:16.734Z,4.90
2018-10-05T04:01:44.382Z,4.90
2018-10-05T04:04:12.074Z,4.90
2018-10-05T04:06:39.927Z,4.90
2018-10-05T04:09:08.744Z,4.80
2018-10-05T04:11:36.462Z,4.90
2018-10-05T04:14:04.157Z,4.90
2018-10-05T04:16:31.838Z,4.90
2018-10-05T04:18:59.721Z,4.80
2018-10-05T04:21:27.408Z,4.80
2018-10-05T04:23:55.082Z,4.80
2018-10-05T04:26:22.852Z,4.80
2018-10-05T04:28:50.528Z,4.80
2018-10-05T04:31:18.437Z,4.80
2018-10-05T04:33:46.331Z,4.80
2018-10-05T04:36:13.999Z,4.70
2018-10-05T04:38:41.674Z,4.90
2018-10-05T04:41:09.402Z,4.90
2018-10-05T04:43:37.038Z,4.80
2018-10-05T04:46:04.673Z,4.70
2018-10-05T04:48:32.358Z,4.80
2018-10-05T04:51:00.043Z,4.70
2018-10-05T04:53:27.821Z,4.70
2018-10-05T04:55:55.550Z,4.80
2018-10-05T04:58:23.232Z,4.70
2018-10-05T05:00:50.898Z,4.70
2018-10-05T05:03:18.560Z,4.80
2018-10-05T05:05:46.254Z,4.80
2018-10-05T05:08:13.990Z,4.70
2018-10-05T05:10:41.710Z,4.70
2018-10-05T05:13:09.390Z,4.70
2018-10-05T05:15:37.082Z,4.60
2018-10-05T05:18:05.087Z,4.70
2018-10-05T05:20:32.772Z,4.70
2018-10-05T05:23:00.910Z,4.70
2018-10-05T05:25:28.805Z,4.70
2018-10-05T05:27:56.471Z,4.70
2018-10-05T05:30:24.174Z,4.70
2018-10-05T05:32:51.842Z,4.70
2018-10-05T05:35:19.512Z,4.80
2018-10-05T05:37:47.237Z,4.90
2018-10-05T05:40:14.913Z,4.90
2018-10-05T05:42:42.816Z,4.80
2018-10-05T05:45:10.514Z,4.80
2018-10-05T05:47:38.178Z,4.90
2018-10-05T05:50:05.873Z,4.90
2018-10-05T05:52:33.607Z,4.90
2018-10-05T05:55:01.276Z,5.00
2018-10-05T05:57:28.959Z,5.00
2018-10-05T05:59:56.630Z,5.10
2018-10-05T06:02:24.316Z,5.10
2018-10-05T06:04:52.034Z,5.10
2018-10-05T06:07:19.753Z,5.20
2018-10-05T06:09:47.402Z,5.30
2018-10-05T06:12:15.156Z,5.50
2018-10-05T06:14:42.929Z,5.70
2018-10-05T06:17:10.601Z,5.90
2018-10-05T06:19:38.273Z,5.80
2018-10-05T06:22:06.036Z,5.90
2018-10-05T06:24:33.647Z,5.90
2018-10-05T06:27:01.306Z,6.00
2018-10-05T06:29:28.970Z,6.50
2018-10-05T06:31:56.662Z,6.90
2018-10-05T06:34:24.337Z,7.20
2018-10-05T06:36:52.019Z,7.60
2018-10-05T06:39:19.702Z,7.80
2018-10-05T06:41:47.428Z,7.70
2018-10-05T06:44:15.095Z,7.50
2018-10-05T06:46:42.783Z,7.40
2018-10-05T06:49:10.542Z,7.40
2018-10-05T06:51:38.215Z,7.40
2018-10-05T06:54:05.961Z,7.80
2018-10-05T06:56:33.650Z,8.00
2018-10-05T06:59:01.321Z,8.10
2018-10-05T07:01:29.101Z,8.10
2018-10-05T07:03:56.689Z,8.30
2018-10-05T07:06:24.381Z,8.20
2018-10-05T07:08:52.050Z,8.40
2018-10-05T07:11:19.848Z,8.70
2018-10-05T07:13:47.580Z,9.10
2018-10-05T07:16:15.247Z,9.40
2018-10-05T07:18:42.965Z,9.70
2018-10-05T07:21:10.655Z,10.00
2018-10-05T07:23:38.350Z,10.10
2018-10-05T07:26:06.047Z,10.00
2018-10-05T07:28:33.889Z,10.20
2018-10-05T07:31:01.497Z,10.30
2018-10-05T07:33:29.245Z,10.50
2018-10-05T07:35:56.926Z,11.10
2018-10-05T07:38:24.615Z,11.50
2018-10-05T07:40:52.277Z,11.70
2018-10-05T07:43:20.266Z,12.10
2018-10-05T07:45:47.959Z,12.20
2018-10-05T07:48:15.614Z,12.70
2018-10-05T07:50:43.303Z,13.50
2018-10-05T07:53:10.961Z,13.80
2018-10-05T07:55:38.707Z,14.30
2018-10-05T07:58:06.381Z,15.40
2018-10-05T08:00:34.074Z,16.60
2018-10-05T08:03:01.755Z,17.30
2018-10-05T08:05:29.427Z,18.10
2018-10-05T08:07:57.090Z,19.50
2018-10-05T08:10:24.766Z,20.30
2018-10-05T08:12:52.435Z,20.50
2018-10-05T08:15:20.110Z,20.20
2018-10-05T08:17:47.766Z,20.30
2018-10-05T08:20:15.458Z,21.70
2018-10-05T08:22:43.122Z,20.90
2018-10-05T08:25:10.848Z,21.70
2018-10-05T08:27:38.511Z,22.40
2018-10-05T08:30:06.508Z,22.30
2018-10-05T08:32:34.242Z,22.10
2018-10-05T08:35:01.902Z,21.40
2018-10-05T08:37:29.601Z,21.40
2018-10-05T08:39:57.344Z,21.50
2018-10-05T08:42:24.962Z,23.20
2018-10-05T08:44:52.649Z,22.00
2018-10-05T08:47:20.335Z,21.40
2018-10-05T08:49:47.983Z,22.50
2018-10-05T08:52:15.814Z,22.90
2018-10-05T08:54:43.517Z,21.90
2018-10-05T08:57:11.209Z,22.30
2018-10-05T08:59:38.867Z,21.90
2018-10-05T09:02:06.557Z,22.20
2018-10-05T09:04:34.241Z,21.60
2018-10-05T09:07:01.934Z,21.10
2018-10-05T09:09:29.605Z,22.30
2018-10-05T09:11:57.387Z,22.20
2018-10-05T09:14:25.123Z,21.10
2018-10-05T09:16:52.789Z,22.20
2018-10-05T09:19:20.459Z,22.20
2018-10-05T09:21:48.337Z,22.30
2018-10-05T09:24:16.362Z,23.20
2018-10-05T09:26:43.881Z,23.20
2018-10-05T09:29:11.622Z,22.00
2018-10-05T09:31:39.293Z,21.90
2018-10-05T09:34:07.082Z,22.30
2018-10-05T09:36:34.817Z,22.00
2018-10-05T09:39:02.538Z,22.40
2018-10-05T09:41:30.252Z,22.30
2018-10-05T09:43:57.917Z,21.60
2018-10-05T09:46:25.585Z,23.00
2018-10-05T09:48:53.267Z,23.60
2018-10-05T09:51:21.000Z,24.20
2018-10-05T09:53:48.898Z,25.70
2018-10-05T09:56:16.634Z,26.00
2018-10-05T09:58:44.343Z,24.50
2018-10-05T10:01:17.495Z,25.40
2018-10-05T10:03:45.186Z,26.30
2018-10-05T10:06:12.868Z,26.40
2018-10-05T10:08:40.609Z,26.00
2018-10-05T10:11:08.679Z,28.50
2018-10-05T10:13:36.515Z,27.10
2018-10-05T10:16:04.205Z,26.90
2018-10-05T10:18:31.880Z,27.80
2018-10-05T10:20:59.717Z,27.60
2018-10-05T10:23:27.390Z,27.40
2018-10-05T10:25:55.049Z,27.80
2018-10-05T10:28:22.902Z,27.90
2018-10-05T10:30:50.454Z,28.70
2018-10-05T10:33:18.128Z,27.60
2018-10-05T10:35:45.891Z,27.30
2018-10-05T10:38:13.669Z,27.80
2018-10-05T10:40:41.338Z,27.40
2018-10-05T10:43:09.045Z,27.60
2018-10-05T10:45:36.749Z,26.50
2018-10-05T10:48:04.490Z,25.80
2018-10-05T10:50:32.190Z,25.30
2018-10-05T10:52:59.942Z,25.90
2018-10-05T10:55:27.636Z,26.40
2018-10-05T10:57:55.318Z,25.80
2018-10-05T11:00:23.028Z,25.80
2018-10-05T11:02:50.733Z,26.20
2018-10-05T11:05:18.484Z,25.30
2018-10-05T11:07:46.150Z,25.20
2018-10-05T11:10:13.818Z,25.00
2018-10-05T11:12:41.596Z,24.80
2018-10-05T11:15:09.313Z,24.50
2018-10-05T11:17:37.025Z,24.70
2018-10-05T11:20:04.893Z,24.70
2018-10-05T11:22:32.666Z,25.30
2018-10-05T11:25:00.421Z,25.50
2018-10-05T11:27:28.114Z,25.50
2018-10-05T11:29:55.816Z,25.30
2018-10-05T11:32:23.493Z,24.90
2018-10-05T11:34:51.174Z,24.80
2018-10-05T11:37:18.862Z,24.80
2018-10-05T11:39:46.533Z,24.90
2018-10-05T11:42:14.245Z,24.60
2018-10-05T11:44:42.001Z,23.90
2018-10-05T11:47:09.791Z,24.00
2018-10-05T11:49:37.792Z,24.00
2018-10-05T11:52:05.526Z,24.10
2018-10-05T11:54:33.291Z,24.30
2018-10-05T11:57:01.042Z,23.90
2018-10-05T11:59:28.715Z,24.00
2018-10-05T12:01:56.381Z,24.50
2018-10-05T12:04:24.070Z,24.20
2018-10-05T12:06:51.748Z,24.70
2018-10-05T12:09:19.433Z,24.80
2018-10-05T12:11:47.194Z,23.90
2018-10-05T12:14:14.889Z,24.20
2018-10-05T12:16:42.561Z,24.20
2018-10-05T12:19:10.293Z,24.60
2018-10-05T12:21:37.967Z,24.80
2018-10-05T12:24:05.676Z,24.80
2018-10-05T12:26:33.424Z,24.70
2018-10-05T12:29:01.048Z,24.70
2018-10-05T12:31:28.784Z,24.70
2018-10-05T12:33:56.509Z,24.40
2018-10-05T12:36:24.202Z,24.10
2018-10-05T12:38:51.909Z,24.10
2018-10-05T12:41:19.609Z,24.20
2018-10-05T12:43:47.365Z,24.60
2018-10-05T12:46:15.073Z,24.00
2018-10-05T12:48:42.793Z,24.10
2018-10-05T12:51:10.467Z,23.80
2018-10-05T12:53:38.159Z,23.80
2018-10-05T12:56:05.877Z,24.10
2018-10-05T12:58:33.561Z,24.50
2018-10-05T13:01:01.369Z,24.80
2018-10-05T13:03:29.097Z,24.90
2018-10-05T13:05:56.808Z,24.50
2018-10-05T13:08:24.530Z,24.70
2018-10-05T13:10:52.287Z,24.10
2018-10-05T13:13:19.996Z,24.30
2018-10-05T13:15:48.003Z,24.70
2018-10-05T13:18:15.733Z,24.80
2018-10-05T13:20:43.399Z,24.70
2018-10-05T13:23:11.126Z,24.40
2018-10-05T13:25:39.008Z,24.30
2018-10-05T13:28:06.726Z,24.40
2018-10-05T13:30:34.422Z,25.30
2018-10-05T13:33:02.098Z,25.00
2018-10-05T13:35:29.779Z,25.20
2018-10-05T13:38:00.654Z,24.40
2018-10-05T13:40:28.433Z,24.00
2018-10-05T13:42:56.187Z,23.80
2018-10-05T13:45:23.942Z,23.80
2018-10-05T13:47:51.624Z,24.00
2018-10-05T13:50:19.332Z,24.40
2018-10-05T13:52:47.037Z,24.40
2018-10-05T13:55:14.822Z,24.20
2018-10-05T13:57:42.971Z,24.40
2018-10-05T14:00:10.762Z,24.00
2018-10-05T14:02:38.590Z,24.70
2018-10-05T14:05:06.312Z,24.30
2018-10-05T14:07:34.018Z,24.40
2018-10-05T14:10:01.825Z,24.30
2018-10-05T14:12:29.533Z,24.40
2018-10-05T14:14:57.270Z,24.10
2018-10-05T14:17:25.013Z,24.20
2018-10-05T14:19:52.740Z,24.30
2018-10-05T14:22:20.444Z,24.10
2018-10-05T14:24:48.152Z,24.50
2018-10-05T14:27:15.831Z,24.30
2018-10-05T14:29:43.539Z,24.00
2018-10-05T14:32:12.222Z,23.80
2018-10-05T14:34:40.916Z,24.20
2018-10-05T14:37:08.938Z,23.80
2018-10-05T14:39:36.661Z,24.00
2018-10-05T14:42:04.359Z,24.50
2018-10-05T14:44:32.189Z,24.60
2018-10-05T14:46:59.995Z,24.40
2018-10-05T14:49:27.860Z,24.10
2018-10-05T14:51:55.519Z,23.70
2018-10-05T14:54:23.186Z,23.40
2018-10-05T14:56:50.903Z,23.30
2018-10-05T14:59:18.835Z,23.60
2018-10-05T15:01:46.531Z,23.70
2018-10-05T15:04:14.227Z,23.90
2018-10-05T15:06:41.937Z,24.40
2018-10-05T15:09:09.641Z,24.60
2018-10-05T15:11:37.357Z,24.10
2018-10-05T15:14:05.094Z,23.60
2018-10-05T15:16:32.840Z,23.60
2018-10-05T15:19:00.523Z,23.70
2018-10-05T15:21:28.261Z,23.50
2018-10-05T15:23:55.956Z,23.70
2018-10-05T15:26:23.670Z,23.60
2018-10-05T15:28:51.352Z,23.40
2018-10-05T15:31:25.777Z,23.40
2018-10-05T15:33:53.489Z,23.30
2018-10-05T15:36:21.184Z,23.20
2018-10-05T15:38:48.909Z,23.00
2018-10-05T15:41:16.570Z,22.90
2018-10-05T15:43:44.252Z,22.80
2018-10-05T15:46:16.413Z,22.70
2018-10-05T15:48:44.107Z,22.50
2018-10-05T15:51:11.791Z,22.30
2018-10-05T15:53:39.498Z,22.20
2018-10-05T15:56:07.200Z,22.10
2018-10-05T15:58:34.927Z,22.00
2018-10-05T16:01:02.611Z,21.90
2018-10-05T16:03:30.325Z,21.70
2018-10-05T16:05:58.100Z,21.60
2018-10-05T16:08:25.753Z,21.30
2018-10-05T16:10:53.515Z,21.30
2018-10-05T16:13:21.208Z,21.00
2018-10-05T16:15:48.934Z,21.00
2018-10-05T16:18:16.709Z,20.80
2018-10-05T16:20:44.329Z,20.60
2018-10-05T16:23:12.042Z,20.40
2018-10-05T16:25:39.710Z,20.20
2018-10-05T16:28:07.507Z,20.00
2018-10-05T16:30:41.798Z,19.90
2018-10-05T16:33:09.538Z,19.70
2018-10-05T16:35:37.226Z,19.50
2018-10-05T16:38:04.951Z,19.40
2018-10-05T16:40:32.686Z,19.30
2018-10-05T16:43:00.394Z,19.10
2018-10-05T16:45:28.085Z,19.00
2018-10-05T16:47:55.846Z,18.80
2018-10-05T16:50:23.510Z,18.70
2018-10-05T16:52:51.206Z,18.50
2018-10-05T16:55:18.897Z,18.40
2018-10-05T16:57:46.602Z,18.30
2018-10-05T17:00:14.326Z,18.10
2018-10-05T17:02:42.105Z,18.00
2018-10-05T17:05:09.818Z,17.80
2018-10-05T17:07:37.675Z,17.70
2018-10-05T17:10:05.381Z,17.60
2018-10-05T17:12:33.054Z,17.50
2018-10-05T17:15:00.773Z,17.30
2018-10-05T17:17:28.465Z,17.20
2018-10-05T17:19:56.149Z,17.20
2018-10-05T17:22:23.897Z,17.00
2018-10-05T17:24:51.626Z,16.90
2018-10-05T17:27:19.332Z,16.90
2018-10-05T17:29:47.107Z,16.80
2018-10-05T17:32:14.890Z,16.60
2018-10-05T17:34:42.565Z,16.50
2018-10-05T17:37:10.337Z,16.30
2018-10-05T17:39:38.029Z,16.20
2018-10-05T17:42:05.777Z,16.00
2018-10-05T17:44:33.594Z,15.90
2018-10-05T17:47:01.266Z,15.80
2018-10-05T17:49:28.951Z,15.70
2018-10-05T17:51:56.642Z,15.60
2018-10-05T17:54:24.385Z,15.60
2018-10-05T17:56:52.051Z,15.60
2018-10-05T17:59:19.820Z,15.50
2018-10-05T18:01:47.503Z,15.40
2018-10-05T18:04:15.216Z,15.30
2018-10-05T18:06:42.971Z,15.10
2018-10-05T18:09:10.642Z,15.00
2018-10-05T18:11:38.753Z,14.90
2018-10-05T18:14:06.494Z,14.90
2018-10-05T18:16:34.174Z,14.70
2018-10-05T18:19:01.900Z,14.70
2018-10-05T18:21:29.669Z,14.50
2018-10-05T18:23:57.359Z,14.50
2018-10-05T18:26:25.065Z,14.40
2018-10-05T18:28:52.768Z,14.30
2018-10-05T18:31:20.474Z,14.20
2018-10-05T18:33:48.304Z,14.20
2018-10-05T18:36:15.893Z,14.10
2018-10-05T18:38:43.612Z,14.00
2018-10-05T18:41:11.329Z,14.00
2018-10-05T18:43:39.002Z,13.90
2018-10-05T18:46:07.121Z,13.80
2018-10-05T18:48:34.810Z,13.80
2018-10-05T18:51:02.561Z,13.80
2018-10-05T18:53:30.208Z,13.80
2018-10-05T18:56:02.483Z,13.60
2018-10-05T18:58:30.152Z,13.60
2018-10-05T19:00:57.873Z,13.60
2018-10-05T19:03:25.550Z,13.50
2018-10-05T19:05:54.316Z,13.50
2018-10-05T19:08:22.033Z,13.40
2018-10-05T19:10:49.718Z,13.40
2018-10-05T19:13:17.401Z,13.40
2018-10-05T19:15:45.144Z,13.30
2018-10-05T19:18:12.892Z,13.30
2018-10-05T19:20:40.632Z,13.30
2018-10-05T19:23:08.305Z,13.20
2018-10-05T19:25:36.003Z,13.10
2018-10-05T19:28:03.671Z,13.10
2018-10-05T19:30:31.394Z,13.00
2018-10-05T19:32:59.154Z,12.90
2018-10-05T19:35:26.885Z,12.90
2018-10-05T19:37:54.577Z,12.80
2018-10-05T19:40:22.302Z,12.80
2018-10-05T19:42:50.012Z,12.70
2018-10-05T19:45:17.721Z,12.70
2018-10-05T19:47:45.405Z,12.70
2018-10-05T19:50:13.105Z,12.60
2018-10-05T19:52:40.804Z,12.70
2018-10-05T19:55:08.475Z,12.70
2018-10-05T19:57:36.218Z,12.60
2018-10-05T20:00:04.056Z,12.50
2018-10-05T20:02:31.750Z,12.40
2018-10-05T20:04:59.426Z,12.50
2018-10-05T20:07:27.185Z,12.40
2018-10-05T20:09:54.950Z,12.40
2018-10-05T20:12:22.613Z,12.40
2018-10-05T20:14:50.494Z,12.30
2018-10-05T20:17:18.251Z,12.30
2018-10-05T20:19:45.926Z,12.20
2018-10-05T20:22:13.615Z,12.10
2018-10-05T20:24:41.328Z,12.10
2018-10-05T20:27:08.998Z,12.10
2018-10-05T20:29:36.695Z,12.10
2018-10-05T20:32:04.406Z,11.90
2018-10-05T20:34:32.174Z,11.80
2018-10-05T20:37:00.067Z,11.80
2018-10-05T20:39:27.564Z,11.80
2018-10-05T20:41:55.287Z,11.90
2018-10-05T20:44:23.016Z,11.80
2018-10-05T20:46:50.726Z,11.90
2018-10-05T20:49:18.422Z,11.90
2018-10-05T20:51:46.180Z,11.70
2018-10-05T20:54:13.902Z,11.60
2018-10-05T20:56:41.679Z,11.60
2018-10-05T20:59:09.429Z,11.60
2018-10-05T21:01:37.189Z,11.60
2018-10-05T21:04:04.881Z,11.50
2018-10-05T21:06:32.593Z,11.50
2018-10-05T21:09:00.322Z,11.50
2018-10-05T21:11:28.017Z,11.40
2018-10-05T21:13:55.754Z,11.50
2018-10-05T21:16:23.467Z,11.50
2018-10-05T21:18:51.140Z,11.50
2018-10-05T21:21:18.847Z,11.60
2018-10-05T21:23:46.527Z,11.60
2018-10-05T21:26:14.226Z,11.60
2018-10-05T21:28:41.954Z,11.70
2018-10-05T21:31:09.655Z,11.50
2018-10-05T21:33:37.366Z,11.40
2018-10-05T21:36:05.169Z,11.50
2018-10-05T21:38:32.948Z,11.40
2018-10-05T21:41:00.598Z,11.40
2018-10-05T21:43:28.302Z,11.40
2018-10-05T21:45:56.066Z,11.50
2018-10-05T21:48:23.778Z,11.60
2018-10-05T21:50:51.499Z,11.60
2018-10-05T21:53:19.224Z,11.70
2018-10-05T21:55:46.902Z,11.70
2018-10-05T21:58:14.568Z,11.70
2018-10-05T22:00:42.722Z,11.80
2018-10-05T22:03:11.261Z,11.70
2018-10-05T22:05:39.056Z,11.80
2018-10-05T22:08:06.797Z,11.80
2018-10-05T22:10:34.564Z,11.80
2018-10-05T22:13:02.260Z,11.70
2018-10-05T22:15:29.967Z,11.70
2018-10-05T22:17:57.715Z,11.70
2018-10-05T22:20:25.389Z,11.60
2018-10-05T22:22:53.121Z,11.50
2018-10-05T22:25:20.802Z,11.50
2018-10-05T22:27:48.522Z,11.40
2018-10-05T22:30:16.226Z,11.50
2018-10-05T22:32:43.941Z,11.60
2018-10-05T22:35:11.681Z,11.40
2018-10-05T22:37:39.419Z,11.40
2018-10-05T22:40:07.307Z,11.40
2018-10-05T22:42:35.020Z,11.40
2018-10-05T22:45:02.695Z,11.30
2018-10-05T22:47:30.533Z,11.30
2018-10-05T22:49:58.219Z,11.60
2018-10-05T22:52:25.898Z,12.20
2018-10-05T22:54:53.618Z,12.80
2018-10-05T22:57:21.328Z,13.00
2018-10-05T22:59:49.025Z,13.00
2018-10-05T23:02:16.734Z,12.70
2018-10-05T23:04:44.445Z,12.80
2018-10-05T23:07:12.123Z,13.00
2018-10-05T23:09:39.832Z,13.10
2018-10-05T23:12:07.757Z,13.40
2018-10-05T23:14:35.442Z,13.60
2018-10-05T23:17:03.139Z,13.70
2018-10-05T23:19:30.832Z,13.60
2018-10-05T23:21:58.514Z,13.20
2018-10-05T23:24:26.196Z,13.10
2018-10-05T23:26:53.905Z,13.00
2018-10-05T23:29:21.569Z,12.60
2018-10-05T23:31:49.338Z,12.40
2018-10-05T23:34:17.055Z,12.10
2018-10-05T23:36:44.767Z,11.90
2018-10-05T23:39:12.474Z,11.80
2018-10-05T23:41:40.171Z,11.70
2018-10-05T23:44:08.065Z,11.60
2018-10-05T23:46:35.781Z,11.50
2018-10-05T23:49:03.472Z,11.50
2018-10-05T23:51:31.166Z,11.30
2018-10-05T23:53:58.838Z,11.30
2018-10-05T23:56:26.587Z,11.20
2018-10-05T23:58:54.259Z,11.10
